Time;durP1;ratioP1;P1;durP2;ratioP2;P2;SDS_P1;SDS_P2;PMS_P1;PMS_P2;Temp;Humidity;BMP_temperature;BMP_pressure;BME280_temperature;BME280_humidity;BME280_pressure;Samples;Min_cycle;Max_cycle;Signal;HPM_P1;HPM_P2
2022/11/15 00:01:38;;;;;;;39.95;22.48;;;;;;;7.59;85.34;100411.38;5030312;28;20092;-47
2022/11/15 00:04:04;;;;;;;39.20;22.67;;;;;;;7.83;84.67;100435.19;5030423;28;20401;-45
2022/11/15 00:06:30;;;;;;;38.25;23.27;;;;;;;7.66;84.04;100412.38;5030547;28;20040;-45
2022/11/15 00:08:58;;;;;;;38.60;23.60;;;;;;;7.99;82.97;100422.91;5030256;28;20108;-44
2022/11/15 00:11:23;;;;;;;40.17;22.83;;;;;;;8.05;83.06;100432.81;5030798;28;20099;-44
2022/11/15 00:13:49;;;;;;;37.08;22.27;;;;;;;8.08;83.20;100432.47;5030762;28;20029;-45
2022/11/15 00:16:14;;;;;;;37.78;21.83;;;;;;;8.12;82.24;100430.31;5030361;28;20025;-44
2022/11/15 00:18:40;;;;;;;38.03;21.55;;;;;;;8.23;81.85;100425.47;5030134;28;20350;-44
2022/11/15 00:21:09;;;;;;;38.10;21.60;;;;;;;8.07;82.09;100424.69;5029784;28;20057;-44
2022/11/15 00:23:35;;;;;;;37.38;21.60;;;;;;;8.01;82.92;100427.06;5029604;28;20049;-44
2022/11/15 00:26:01;;;;;;;36.33;21.88;;;;;;;8.08;82.46;100432.47;5029747;28;20034;-44
2022/11/15 00:28:26;;;;;;;37.88;21.17;;;;;;;8.05;82.32;100422.22;5029821;28;20442;-44
2022/11/15 00:30:52;;;;;;;37.13;22.08;;;;;;;8.19;82.24;100423.34;5029876;28;20029;-44
2022/11/15 00:33:17;;;;;;;38.85;22.67;;;;;;;8.10;82.44;100430.47;5029885;28;20032;-44
2022/11/15 00:35:42;;;;;;;46.75;22.67;;;;;;;7.88;83.33;100431.19;5029861;28;20377;-44
2022/11/15 00:38:08;;;;;;;41.33;23.23;;;;;;;8.19;81.99;100418.84;5029671;28;20093;-46
2022/11/15 00:40:33;;;;;;;39.28;21.88;;;;;;;8.23;81.20;100429.94;5029623;28;20136;-44
2022/11/15 00:42:59;;;;;;;33.80;21.42;;;;;;;8.10;81.15;100419.88;5029944;28;20044;-44
2022/11/15 00:45:25;;;;;;;39.08;23.30;;;;;;;8.05;81.68;100424.84;5029742;28;20417;-45
2022/11/15 00:47:51;;;;;;;37.58;21.98;;;;;;;8.01;82.59;100420.91;5029668;28;20033;-45
2022/11/15 00:50:17;;;;;;;39.90;21.98;;;;;;;8.01;82.61;100410.28;5029720;28;20032;-43
2022/11/15 00:52:42;;;;;;;40.50;23.02;;;;;;;8.09;82.27;100412.94;5029768;28;20026;-44
2022/11/15 00:55:14;;;;;;;40.88;23.60;;;;;;;8.08;82.12;100405.97;5029687;28;20108;-44
2022/11/15 00:57:40;;;;;;;36.33;21.60;;;;;;;8.22;81.66;100410.56;5029821;28;20025;-44
2022/11/15 01:00:06;;;;;;;39.03;22.35;;;;;;;8.15;82.15;100409.59;5030439;28;20383;-44
2022/11/15 01:02:32;;;;;;;39.35;22.33;;;;;;;8.26;82.30;100407.56;5033109;28;20037;-44
2022/11/15 01:04:57;;;;;;;40.55;23.20;;;;;;;8.26;81.64;100407.56;5032953;28;20022;-44
2022/11/15 01:07:23;;;;;;;38.67;22.70;;;;;;;8.23;81.94;100404.25;5032918;28;20433;-44
2022/11/15 01:09:48;;;;;;;40.53;23.85;;;;;;;8.05;83.01;100416.09;5032997;28;20115;-43
2022/11/15 01:12:14;;;;;;;41.28;23.15;;;;;;;8.17;81.83;100412.09;5032996;28;20031;-44
2022/11/15 01:14:39;;;;;;;41.13;23.55;;;;;;;8.14;81.78;100407.94;5032982;28;20390;-44
2022/11/15 01:17:04;;;;;;;39.45;23.48;;;;;;;8.14;82.11;100407.13;5032779;28;20442;-43
2022/11/15 01:19:30;;;;;;;40.05;23.55;;;;;;;8.00;82.07;100392.75;5032811;28;20091;-44
2022/11/15 01:21:55;;;;;;;44.55;22.98;;;;;;;8.18;81.41;100398.63;5032585;28;20104;-44
2022/11/15 01:24:20;;;;;;;39.17;22.65;;;;;;;8.18;81.08;100398.63;5032917;28;20516;-45
2022/11/15 01:26:46;;;;;;;38.88;23.10;;;;;;;7.90;82.46;100392.09;5032856;28;20033;-45
2022/11/15 01:29:12;;;;;;;40.55;22.60;;;;;;;7.99;82.31;100394.56;5032685;28;20077;-44
2022/11/15 01:31:37;;;;;;;40.22;22.83;;;;;;;8.27;81.70;100398.63;5032836;28;20477;-43
2022/11/15 01:34:03;;;;;;;38.90;23.17;;;;;;;8.14;81.18;100397.31;5033003;28;20027;-43
2022/11/15 01:36:29;;;;;;;40.05;23.48;;;;;;;8.30;81.04;100395.59;5032525;28;20469;-44
2022/11/15 01:38:55;;;;;;;38.70;23.17;;;;;;;8.18;81.54;100392.50;5032352;28;20032;-44
2022/11/15 01:41:27;;;;;;;39.50;23.40;;;;;;;8.23;81.02;100391.00;5032373;28;20061;-44
2022/11/15 01:43:56;;;;;;;39.97;22.98;;;;;;;8.18;81.19;100387.22;5032096;28;20520;-44
2022/11/15 01:46:21;;;;;;;40.25;22.80;;;;;;;8.23;80.65;100391.00;5031556;28;20472;-44
2022/11/15 01:48:50;;;;;;;38.67;22.45;;;;;;;8.05;81.54;100381.63;5031437;28;20053;-43
2022/11/15 01:51:19;;;;;;;33.83;21.63;;;;;;;8.06;81.73;100381.47;5031525;28;20029;-44
2022/11/15 01:53:47;;;;;;;35.25;20.60;;;;;;;8.17;81.59;100383.75;5031927;28;20025;-45
2022/11/15 01:56:17;;;;;;;36.45;20.50;;;;;;;8.12;80.86;100386.06;5032010;28;20739;-45
2022/11/15 01:58:45;;;;;;;35.72;21.05;;;;;;;8.12;80.33;100379.94;5032089;28;20088;-45
2022/11/15 02:01:12;;;;;;;35.85;20.92;;;;;;;8.13;80.85;100385.09;5032034;28;20056;-45
2022/11/15 02:04:01;;;;;;;30.83;19.23;;;;;;;8.06;81.05;100386.75;5031969;28;20109;-46
2022/11/15 02:06:27;;;;;;;37.15;19.52;;;;;;;7.96;81.05;100388.78;5031751;28;20021;-43
2022/11/15 02:08:53;;;;;;;36.50;20.35;;;;;;;7.87;80.86;100376.56;5031725;28;20028;-45
2022/11/15 02:11:18;;;;;;;31.55;19.40;;;;;;;7.96;80.39;100392.25;5031196;28;20035;-44
2022/11/15 02:13:44;;;;;;;36.10;20.70;;;;;;;8.00;80.20;100388.28;5031813;28;20032;-43
2022/11/15 02:16:15;;;;;;;33.60;20.27;;;;;;;8.05;79.38;100385.09;5031624;28;20401;-43
2022/11/15 02:19:19;;;;;;;35.83;20.67;;;;;;;8.31;79.31;100378.72;5031632;28;20041;-44
2022/11/15 02:22:06;;;;;;;37.53;20.33;;;;;;;8.25;79.26;100369.63;5031391;28;20389;-44
2022/11/15 02:25:08;;;;;;;33.08;19.38;;;;;;;8.45;78.14;100377.16;5031584;28;20033;-44
2022/11/15 02:27:53;;;;;;;34.67;19.58;;;;;;;8.35;78.71;100372.06;5031247;28;20095;-45
2022/11/15 02:30:23;;;;;;;39.50;20.58;;;;;;;8.36;78.66;100377.19;5031706;28;20025;-45
2022/11/15 02:33:08;;;;;;;32.30;19.50;;;;;;;8.33;78.78;100374.06;5031526;28;20087;-45
2022/11/15 02:35:52;;;;;;;31.00;18.80;;;;;;;8.27;79.27;100369.44;5031313;28;20036;-45
2022/11/15 02:39:09;;;;;;;33.40;19.83;;;;;;;7.88;80.56;100375.56;5031343;28;20044;-45
2022/11/15 02:45:06;;;;;;;34.28;19.17;;;;;;;8.29;79.29;100372.75;5014312;28;20048;-44
2022/11/15 02:47:37;;;;;;;31.63;19.00;;;;;;;8.25;79.61;100368.81;5031115;28;20040;-44
2022/11/15 02:50:16;;;;;;;33.45;20.00;;;;;;;8.21;79.60;100363.00;5031173;28;20366;-45
2022/11/15 02:52:46;;;;;;;36.35;19.70;;;;;;;8.38;79.10;100363.75;5030989;28;20029;-44
2022/11/15 02:55:28;;;;;;;34.45;20.27;;;;;;;8.47;78.38;100368.03;5031077;28;20033;-44
2022/11/15 02:58:32;;;;;;;35.92;19.05;;;;;;;8.55;78.77;100365.34;5030841;28;20041;-44
2022/11/15 03:01:22;;;;;;;36.72;19.13;;;;;;;8.48;77.96;100366.22;5030223;28;20041;-44
2022/11/15 03:04:11;;;;;;;35.45;19.42;;;;;;;8.56;78.28;100355.56;5030879;28;20033;-44
2022/11/15 03:06:48;;;;;;;36.28;20.45;;;;;;;8.65;77.35;100357.16;5030589;28;20064;-44
2022/11/15 03:09:37;;;;;;;38.60;20.23;;;;;;;8.41;77.97;100364.28;5030952;28;20121;-43
2022/11/15 03:12:21;;;;;;;35.38;20.50;;;;;;;8.30;78.63;100356.69;5031328;28;20048;-44
2022/11/15 03:15:05;;;;;;;35.13;19.48;;;;;;;8.47;77.94;100360.06;5031616;28;20091;-44
2022/11/15 03:17:37;;;;;;;39.08;20.20;;;;;;;8.49;77.90;100360.75;5031246;28;20104;-44
2022/11/15 03:20:06;;;;;;;33.00;18.63;;;;;;;8.63;76.97;100366.31;5031424;28;20105;-45
2022/11/15 03:22:36;;;;;;;34.90;19.67;;;;;;;8.46;78.42;100358.44;5030408;28;20057;-44
2022/11/15 03:25:05;;;;;;;33.00;19.25;;;;;;;8.50;78.09;100362.38;5031075;28;20055;-43
2022/11/15 03:27:37;;;;;;;34.75;20.13;;;;;;;8.34;79.25;100359.78;5031271;28;20100;-43
2022/11/15 03:30:06;;;;;;;34.30;18.85;;;;;;;8.11;80.23;100363.22;5029644;28;20378;-44
2022/11/15 03:32:37;;;;;;;32.53;19.08;;;;;;;8.32;79.63;100351.16;5031569;28;20147;-44
2022/11/15 03:35:07;;;;;;;35.85;19.33;;;;;;;8.32;79.33;100349.38;5031256;28;20048;-44
2022/11/15 03:37:56;;;;;;;34.45;18.25;;;;;;;8.41;78.76;100351.00;5031008;28;20373;-43
2022/11/15 03:40:34;;;;;;;35.50;19.67;;;;;;;8.47;78.72;100351.28;5030692;28;20041;-43
2022/11/15 03:42:59;;;;;;;31.55;18.30;;;;;;;8.25;79.24;100348.41;5030910;28;20107;-47
2022/11/15 03:45:46;;;;;;;34.03;19.52;;;;;;;8.21;80.30;100344.44;5030863;28;20445;-44
2022/11/15 03:48:18;;;;;;;34.60;18.25;;;;;;;8.37;78.88;100347.00;5030427;28;20025;-44
2022/11/15 03:50:45;;;;;;;33.63;18.30;;;;;;;8.52;78.71;100333.03;5034760;28;20028;-43
2022/11/15 03:53:12;;;;;;;34.97;19.25;;;;;;;8.30;78.97;100332.81;5042545;28;20614;-44
2022/11/15 03:55:37;;;;;;;30.58;18.80;;;;;;;8.31;78.76;100331.78;5032927;28;20404;-44
2022/11/15 03:58:02;;;;;;;33.80;18.83;;;;;;;8.44;79.26;100330.44;5037523;28;20029;-44
2022/11/15 04:00:28;;;;;;;34.13;19.83;;;;;;;8.41;79.25;100328.91;5041670;28;20063;-44
2022/11/15 04:02:54;;;;;;;34.03;20.02;;;;;;;8.19;80.59;100320.75;5035336;28;20473;-43
2022/11/15 04:05:20;;;;;;;44.85;24.27;;;;;;;8.33;79.96;100328.97;5030377;28;20052;-44
2022/11/15 04:07:45;;;;;;;34.28;19.83;;;;;;;8.20;79.91;100322.41;5031005;28;20493;-44
2022/11/15 04:10:11;;;;;;;40.72;22.67;;;;;;;8.29;79.12;100325.03;5030893;28;20443;-43
2022/11/15 04:12:43;;;;;;;32.65;19.73;;;;;;;8.40;78.71;100317.50;5030702;28;20022;-46
2022/11/15 04:15:09;;;;;;;36.45;19.27;;;;;;;8.65;77.58;100320.00;5030533;28;20205;-44
2022/11/15 04:17:54;;;;;;;32.70;17.42;;;;;;;8.50;78.30;100317.28;5030338;28;20060;-45
2022/11/15 04:25:57;;;;;;;31.70;18.08;;;;;;;8.57;77.24;100304.16;5030375;28;20044;-45
2022/11/15 04:28:23;;;;;;;31.20;17.60;;;;;;;8.77;76.91;100307.97;5030024;28;20029;-44
2022/11/15 04:30:48;;;;;;;30.63;17.10;;;;;;;8.57;75.83;100304.16;5037352;28;20032;-44
2022/11/15 04:33:14;;;;;;;26.23;17.00;;;;;;;8.52;76.27;100306.50;5050127;28;20104;-44
2022/11/15 04:35:41;;;;;;;27.55;16.48;;;;;;;8.61;75.96;100308.94;5052476;28;20021;-45
2022/11/15 04:38:08;;;;;;;28.33;16.40;;;;;;;8.48;76.44;100308.69;5052957;28;20712;-44
2022/11/15 04:40:35;;;;;;;29.13;16.77;;;;;;;8.49;75.62;100307.69;5053280;28;20055;-44
2022/11/15 04:43:00;;;;;;;28.73;16.65;;;;;;;8.47;76.01;100306.19;5053559;28;20040;-44
2022/11/15 04:45:26;;;;;;;26.50;16.15;;;;;;;8.36;76.04;100313.53;5054024;28;20040;-44
2022/11/15 04:47:51;;;;;;;29.13;17.23;;;;;;;8.12;76.40;100292.47;5053650;28;20178;-45
2022/11/15 04:50:17;;;;;;;34.28;17.63;;;;;;;8.22;76.52;100308.97;5052486;28;20021;-43
2022/11/15 04:52:49;;;;;;;37.58;22.35;;;;;;;8.15;76.22;100308.84;5052469;28;20025;-42
2022/11/15 04:55:15;;;;;;;47.42;26.55;;;;;;;8.02;76.29;100311.25;5052061;28;20029;-43
2022/11/15 04:57:40;;;;;;;32.97;18.58;;;;;;;8.27;75.38;100305.81;5052438;28;20076;-43
2022/11/15 05:00:08;;;;;;;28.02;15.05;;;;;;;8.15;75.24;100303.56;5052457;28;20518;-44
2022/11/15 05:05:17;;;;;;;24.88;14.95;;;;;;;8.56;77.07;100290.06;5052554;28;20356;-45
2022/11/15 05:07:43;;;;;;;26.23;14.82;;;;;;;8.55;74.44;100300.88;5038630;28;20033;-49
2022/11/15 05:10:09;;;;;;;29.27;17.48;;;;;;;8.48;74.40;100307.88;5033209;28;20054;-44
2022/11/15 05:12:35;;;;;;;27.85;16.52;;;;;;;8.42;74.78;100306.75;5032897;28;20072;-43
2022/11/15 05:15:00;;;;;;;28.25;16.55;;;;;;;8.70;73.77;100309.72;5033052;28;20068;-44
2022/11/15 05:17:26;;;;;;;27.83;15.98;;;;;;;8.46;73.92;100310.69;5032770;28;20492;-46
2022/11/15 05:19:51;;;;;;;28.45;16.08;;;;;;;8.25;74.42;100310.47;5032658;28;20037;-44
2022/11/15 05:22:18;;;;;;;28.35;15.93;;;;;;;8.20;74.98;100306.47;5032177;28;20058;-44
2022/11/15 05:24:43;;;;;;;27.13;15.48;;;;;;;8.03;75.57;100304.91;5032340;28;20049;-44
2022/11/15 05:27:08;;;;;;;28.05;16.40;;;;;;;7.96;75.31;100307.44;5032694;28;20031;-44
2022/11/15 05:29:34;;;;;;;30.30;17.80;;;;;;;8.03;75.65;100304.91;5032119;28;20450;-44
2022/11/15 05:31:59;;;;;;;28.48;16.90;;;;;;;8.06;75.94;100306.41;5032342;28;20147;-43
2022/11/15 05:34:26;;;;;;;28.83;17.35;;;;;;;7.99;78.74;100301.78;5032220;28;20128;-44
2022/11/15 05:36:52;;;;;;;30.65;17.38;;;;;;;7.98;76.70;100302.00;5032364;28;20112;-44
2022/11/15 05:39:17;;;;;;;31.88;17.73;;;;;;;8.12;76.11;100303.88;5031696;28;20449;-44
2022/11/15 05:41:48;;;;;;;31.98;18.45;;;;;;;8.26;77.32;100307.63;5031611;28;20037;-44
2022/11/15 05:44:17;;;;;;;30.20;17.13;;;;;;;8.20;77.33;100317.09;5032039;28;20029;-44
2022/11/15 05:46:44;;;;;;;29.42;17.63;;;;;;;8.95;75.34;100307.69;5031066;28;20065;-43
2022/11/15 05:49:13;;;;;;;28.95;16.88;;;;;;;9.43;71.97;100317.19;5032105;28;20468;-45
2022/11/15 05:51:41;;;;;;;26.38;15.82;;;;;;;9.84;69.39;100311.41;5029434;28;20166;-43
2022/11/15 05:54:06;;;;;;;83.20;49.33;;;;;;;9.83;69.44;100318.56;5031239;28;20040;-43
2022/11/15 05:56:32;;;;;;;74.10;39.95;;;;;;;9.42;72.01;100307.56;5031523;28;20033;-44
2022/11/15 05:58:58;;;;;;;79.88;43.95;;;;;;;9.96;69.62;100324.06;5031521;28;20473;-43
2022/11/15 06:01:25;;;;;;;43.28;24.23;;;;;;;10.20;68.37;100323.94;5031381;28;20053;-45
2022/11/15 06:03:51;;;;;;;34.78;17.65;;;;;;;10.54;66.26;100324.13;5031160;28;20033;-44
2022/11/15 06:06:16;;;;;;;28.25;15.75;;;;;;;10.62;65.85;100322.38;5031155;28;20083;-45
2022/11/15 06:08:41;;;;;;;28.30;15.55;;;;;;;10.74;64.87;100329.66;5031339;28;20124;-44
2022/11/15 06:11:07;;;;;;;29.20;15.70;;;;;;;10.69;64.75;100331.25;5030290;28;20028;-43
2022/11/15 06:13:33;;;;;;;27.58;17.25;;;;;;;10.73;64.51;100325.34;5031406;28;20029;-43
2022/11/15 06:15:59;;;;;;;36.42;19.33;;;;;;;10.95;63.53;100330.69;5032402;28;20449;-46
2022/11/15 06:18:25;;;;;;;32.75;15.80;;;;;;;11.12;63.40;100333.91;5032278;28;20099;-43
2022/11/15 06:20:51;;;;;;;30.55;15.57;;;;;;;11.25;62.75;100331.34;5032001;28;20193;-44
2022/11/15 06:23:16;;;;;;;36.13;15.60;;;;;;;11.17;63.39;100339.44;5031584;28;20408;-45
2022/11/15 06:25:42;;;;;;;29.42;16.10;;;;;;;11.22;63.48;100342.38;5032229;28;20034;-43
2022/11/15 06:28:08;;;;;;;30.17;16.15;;;;;;;11.35;62.62;100331.81;5031688;28;20022;-48
2022/11/15 06:30:33;;;;;;;27.80;15.63;;;;;;;11.47;62.96;100341.94;5031548;28;20029;-45
2022/11/15 06:33:03;;;;;;;24.60;15.68;;;;;;;11.47;63.09;100337.41;5031725;28;20028;-45
2022/11/15 06:35:30;;;;;;;27.13;14.68;;;;;;;11.50;62.56;100334.38;5031593;28;20021;-43
2022/11/15 06:37:56;;;;;;;24.20;14.70;;;;;;;11.19;63.28;100321.44;5032029;28;20037;-43
2022/11/15 06:40:21;;;;;;;27.92;14.95;;;;;;;11.52;61.56;100327.00;5031609;28;20068;-45
2022/11/15 06:42:47;;;;;;;26.00;14.40;;;;;;;11.47;61.49;100325.94;5031100;28;20021;-45
2022/11/15 06:45:12;;;;;;;25.25;13.90;;;;;;;11.74;61.16;100335.72;5031013;28;20033;-44
2022/11/15 06:47:46;;;;;;;58.17;31.33;;;;;;;11.78;59.81;100335.34;5030289;28;20116;-44
2022/11/15 06:50:11;;;;;;;35.13;16.42;;;;;;;11.72;60.47;100340.44;5031060;28;20112;-44
2022/11/15 06:52:37;;;;;;;26.58;13.55;;;;;;;11.79;59.69;100337.00;5031212;28;20104;-44
2022/11/15 06:55:02;;;;;;;29.17;14.88;;;;;;;11.76;59.72;100329.41;5030774;28;20460;-45
2022/11/15 06:57:28;;;;;;;29.98;14.73;;;;;;;12.00;58.97;100333.44;5030932;28;20057;-45
2022/11/15 06:59:53;;;;;;;26.15;14.32;;;;;;;12.11;58.86;100327.56;5029185;28;20029;-44
2022/11/15 07:02:19;;;;;;;23.77;13.48;;;;;;;12.26;58.10;100327.38;5030622;28;20100;-42
2022/11/15 07:04:44;;;;;;;20.95;13.40;;;;;;;12.19;57.83;100324.69;5029868;28;20124;-43
2022/11/15 07:07:09;;;;;;;24.88;14.20;;;;;;;11.97;58.28;100329.31;5029490;28;20100;-45
2022/11/15 07:09:35;;;;;;;25.17;14.32;;;;;;;12.27;57.96;100318.38;5029105;28;20375;-44
2022/11/15 07:12:00;;;;;;;21.25;13.18;;;;;;;12.47;56.53;100321.06;5028919;28;20377;-43
2022/11/15 07:14:25;;;;;;;25.13;13.95;;;;;;;12.66;55.92;100316.78;5030044;28;20033;-45
2022/11/15 07:16:51;;;;;;;27.00;15.27;;;;;;;12.70;55.35;100315.38;5030301;28;20017;-45
2022/11/15 07:19:16;;;;;;;22.67;12.63;;;;;;;13.01;54.16;100313.97;5029668;28;20396;-45
2022/11/15 07:21:42;;;;;;;22.20;12.80;;;;;;;13.14;53.99;100308.63;5030394;28;20036;-44
2022/11/15 07:24:07;;;;;;;22.35;12.95;;;;;;;13.28;53.88;100309.44;5030500;28;20142;-44
2022/11/15 07:26:34;;;;;;;27.42;13.80;;;;;;;13.42;53.61;100308.44;5030766;28;20417;-44
2022/11/15 07:28:59;;;;;;;21.15;13.43;;;;;;;13.67;53.20;100307.75;5029235;28;20044;-45
2022/11/15 07:31:25;;;;;;;24.10;13.75;;;;;;;13.72;52.69;100307.13;5030718;28;20017;-45
2022/11/15 07:33:50;;;;;;;21.48;13.77;;;;;;;13.68;55.32;100306.72;5030420;28;20096;-44
2022/11/15 07:36:16;;;;;;;22.20;12.65;;;;;;;14.07;52.53;100311.09;5030453;28;20461;-43
2022/11/15 07:38:42;;;;;;;21.23;12.55;;;;;;;14.85;49.47;100306.56;5030438;28;20085;-44
2022/11/15 07:41:07;;;;;;;22.70;12.95;;;;;;;15.08;49.00;100311.31;5030066;28;20021;-44
2022/11/15 07:43:33;;;;;;;23.13;14.52;;;;;;;14.68;51.47;100305.44;5030402;28;20026;-44
2022/11/15 07:46:04;;;;;;;25.27;14.68;;;;;;;15.11;50.33;100310.88;5030458;28;20490;-46
2022/11/15 07:48:30;;;;;;;33.65;20.98;;;;;;;15.37;50.24;100309.00;5030426;28;20172;-46
2022/11/15 07:50:55;;;;;;;25.77;16.95;;;;;;;15.99;49.00;100304.44;5030420;28;20565;-46
2022/11/15 07:53:21;;;;;;;23.10;13.55;;;;;;;16.52;45.93;100288.63;5030500;28;20028;-47
2022/11/15 07:55:46;;;;;;;23.23;13.35;;;;;;;16.86;44.14;100307.78;5030323;28;20014;-45
2022/11/15 07:58:12;;;;;;;20.80;12.93;;;;;;;16.61;44.58;100298.00;5030446;28;20118;-43
2022/11/15 08:00:38;;;;;;;22.05;13.48;;;;;;;16.51;45.49;100292.38;5030550;28;20025;-45
2022/11/15 08:03:03;;;;;;;20.13;12.77;;;;;;;16.32;44.75;100302.38;5030792;28;20537;-44
2022/11/15 08:05:28;;;;;;;20.80;12.43;;;;;;;16.54;44.97;100300.78;5030502;28;20112;-45
2022/11/15 08:07:57;;;;;;;24.40;13.07;;;;;;;16.90;45.34;100298.22;5030474;28;20018;-44
2022/11/15 08:10:23;;;;;;;18.60;12.07;;;;;;;17.31;43.06;100293.81;5032643;28;20094;-45
2022/11/15 08:12:59;;;;;;;19.35;13.05;;;;;;;17.64;42.29;100297.75;5034632;28;20478;-44
2022/11/15 08:15:25;;;;;;;21.27;13.25;;;;;;;17.65;41.74;100275.16;5034587;28;20037;-45
2022/11/15 08:17:58;;;;;;;18.20;12.88;;;;;;;17.71;41.88;100287.69;5034329;28;20026;-43
2022/11/15 08:20:25;;;;;;;22.05;13.50;;;;;;;17.72;41.80;100286.59;5034441;28;20520;-44
2022/11/15 08:22:50;;;;;;;23.25;13.45;;;;;;;17.77;42.06;100282.16;5034107;28;20044;-45
2022/11/15 08:25:16;;;;;;;18.58;12.45;;;;;;;17.90;42.80;100291.88;5033940;28;20041;-43
2022/11/15 08:27:42;;;;;;;22.90;13.20;;;;;;;18.22;40.87;100283.34;5034088;28;20074;-43
2022/11/15 08:30:08;;;;;;;21.00;13.18;;;;;;;18.38;41.03;100272.84;5033847;28;20128;-42
2022/11/15 08:32:33;;;;;;;22.50;13.38;;;;;;;18.04;41.68;100281.63;5034265;28;20096;-45
2022/11/15 08:34:59;;;;;;;25.38;13.48;;;;;;;17.96;42.22;100280.13;5033738;28;20017;-44
2022/11/15 08:37:24;;;;;;;20.80;13.68;;;;;;;18.60;42.08;100281.03;5033826;28;20030;-43
2022/11/15 08:39:50;;;;;;;49.30;28.42;;;;;;;19.09;40.04;100284.81;5033793;28;20091;-44
2022/11/15 08:42:16;;;;;;;42.30;23.40;;;;;;;19.04;39.90;100283.91;5033572;28;20399;-43
2022/11/15 08:44:41;;;;;;;23.88;14.65;;;;;;;18.92;39.72;100278.63;5033463;28;20036;-43
2022/11/15 08:47:07;;;;;;;22.00;13.85;;;;;;;18.94;39.72;100274.63;5033583;28;20029;-44
2022/11/15 08:49:32;;;;;;;23.83;14.38;;;;;;;18.45;42.31;100271.63;5033562;28;20026;-45
2022/11/15 08:51:58;;;;;;;21.90;14.02;;;;;;;18.54;41.19;100272.03;5033611;28;20022;-47
2022/11/15 08:54:23;;;;;;;22.27;15.07;;;;;;;18.50;41.51;100265.50;5033658;28;20044;-45
2022/11/15 08:56:48;;;;;;;26.77;14.85;;;;;;;18.97;40.73;100259.03;5033143;28;20025;-43
2022/11/15 08:59:14;;;;;;;25.92;15.85;;;;;;;19.26;40.32;100257.00;5033402;28;20026;-42
2022/11/15 09:01:39;;;;;;;23.98;15.77;;;;;;;19.10;40.49;100250.59;5033516;28;20424;-43
2022/11/15 09:04:05;;;;;;;21.20;15.48;;;;;;;19.76;39.10;100253.34;5033330;28;20036;-47
2022/11/15 09:06:30;;;;;;;23.58;16.17;;;;;;;19.61;39.44;100245.88;5033296;28;20103;-44
2022/11/15 09:08:56;;;;;;;25.27;16.80;;;;;;;19.38;40.14;100241.53;5033133;28;20021;-45
2022/11/15 09:11:23;;;;;;;25.35;16.95;;;;;;;18.92;40.59;100235.47;5033177;28;20032;-42
2022/11/15 09:13:49;;;;;;;24.23;17.20;;;;;;;18.68;41.50;100224.84;5033107;28;20100;-44
2022/11/15 09:16:15;;;;;;;28.00;17.40;;;;;;;18.79;41.31;100228.53;5033505;28;20068;-44
2022/11/15 09:18:41;;;;;;;25.20;17.38;;;;;;;18.11;42.14;100216.88;5033206;28;20484;-42
2022/11/15 09:21:07;;;;;;;24.85;17.08;;;;;;;18.44;41.10;100209.88;5031526;28;20500;-44
2022/11/15 09:23:32;;;;;;;26.70;17.75;;;;;;;18.43;41.17;100211.78;5033055;28;20057;-44
2022/11/15 09:26:00;;;;;;;23.80;16.75;;;;;;;18.87;40.32;100208.44;5033405;28;20088;-43
2022/11/15 09:28:27;;;;;;;28.52;18.27;;;;;;;18.71;40.29;100200.06;5032880;28;20045;-45
2022/11/15 09:30:57;;;;;;;27.15;16.85;;;;;;;18.88;41.00;100205.47;5032771;28;20034;-45
2022/11/15 09:33:22;;;;;;;24.40;17.23;;;;;;;18.97;40.64;100197.81;5032789;28;20037;-42
2022/11/15 09:35:48;;;;;;;25.17;17.27;;;;;;;18.64;41.28;100195.91;5032878;28;20099;-44
2022/11/15 09:38:13;;;;;;;25.05;16.98;;;;;;;17.96;43.19;100175.13;5032991;28;20025;-43
2022/11/15 09:40:38;;;;;;;26.27;17.17;;;;;;;19.16;41.46;100187.53;5033163;28;20044;-43
2022/11/15 09:43:29;;;;;;;23.95;17.63;;;;;;;19.84;40.15;100173.81;5032440;28;20033;-43
2022/11/15 09:46:01;;;;;;;27.43;18.23;;;;;;;19.94;40.07;100176.59;5032990;28;20029;-44
2022/11/15 09:48:55;;;;;;;37.38;22.23;;;;;;;19.09;42.36;100173.41;5032860;28;20303;-43
2022/11/15 09:51:34;;;;;;;30.50;19.65;;;;;;;19.25;41.93;100172.56;5032292;28;20047;-45
2022/11/15 09:54:02;;;;;;;50.72;33.97;;;;;;;19.05;42.04;100165.00;5032407;28;20429;-45
2022/11/15 09:56:30;;;;;;;72.43;46.38;;;;;;;19.10;41.79;100172.38;5032091;28;20104;-43
2022/11/15 09:59:05;;;;;;;25.85;19.38;;;;;;;19.32;41.75;100172.34;5032006;28;20029;-45
2022/11/15 10:01:58;;;;;;;28.38;18.40;;;;;;;19.59;40.74;100163.50;5032126;28;20025;-45
2022/11/15 10:04:25;;;;;;;27.40;18.77;;;;;;;19.22;41.62;100154.16;5032420;28;20056;-45
2022/11/15 10:07:01;;;;;;;30.38;19.25;;;;;;;18.76;42.33;100150.81;5032163;28;20021;-45
2022/11/15 10:09:43;;;;;;;32.20;20.00;;;;;;;18.10;43.38;100147.91;5031593;28;20469;-43
2022/11/15 10:12:10;;;;;;;28.83;19.88;;;;;;;18.66;43.19;100148.81;5031613;28;20021;-44
2022/11/15 10:14:36;;;;;;;28.00;19.63;;;;;;;19.46;41.19;100146.63;5030094;28;20036;-44
2022/11/15 10:17:23;;;;;;;25.98;18.40;;;;;;;18.74;41.99;100134.91;5031399;28;20112;-45
2022/11/15 10:20:12;;;;;;;26.00;17.83;;;;;;;19.00;41.73;100134.44;5031752;28;20040;-43
2022/11/15 10:22:51;;;;;;;28.65;17.80;;;;;;;18.95;40.84;100125.22;5030891;28;20053;-44
2022/11/15 10:25:27;;;;;;;25.55;18.40;;;;;;;18.70;42.26;100122.97;5031088;28;20433;-43
2022/11/15 10:28:16;;;;;;;26.30;17.98;;;;;;;18.54;42.04;100123.81;5031440;28;20090;-43
2022/11/15 10:30:47;;;;;;;27.25;17.60;;;;;;;18.66;42.32;100124.53;5031536;28;20104;-43
2022/11/15 10:33:33;;;;;;;26.88;17.77;;;;;;;19.56;41.06;100118.94;5031140;28;20018;-45
2022/11/15 10:36:08;;;;;;;28.10;16.70;;;;;;;20.05;39.39;100118.09;5031534;28;20025;-44
2022/11/15 10:38:50;;;;;;;27.77;17.50;;;;;;;19.64;40.28;100109.56;5031569;28;20029;-43
2022/11/15 10:41:26;;;;;;;38.72;27.52;;;;;;;18.19;42.62;100106.03;5031194;28;20033;-45
2022/11/15 10:44:07;;;;;;;48.50;30.60;;;;;;;18.70;42.28;100097.91;5031479;28;20032;-43
2022/11/15 10:46:33;;;;;;;27.10;18.10;;;;;;;18.76;41.61;100100.41;5031251;28;20056;-46
2022/11/15 10:49:25;;;;;;;26.08;18.00;;;;;;;18.98;41.25;100091.53;5031176;28;20033;-44
2022/11/15 10:51:58;;;;;;;28.50;17.88;;;;;;;19.07;41.55;100086.53;5030605;28;20063;-43
2022/11/15 10:55:04;;;;;;;24.45;17.98;;;;;;;18.68;41.90;100091.97;5030841;28;20059;-46
2022/11/15 10:57:33;;;;;;;27.38;17.65;;;;;;;18.75;41.32;100084.47;5029069;28;20037;-42
2022/11/15 11:00:30;;;;;;;28.58;18.58;;;;;;;18.78;41.66;100084.00;5029646;28;20040;-43
2022/11/15 11:03:07;;;;;;;26.17;18.35;;;;;;;18.00;43.08;100080.41;5031375;28;20169;-44
2022/11/15 11:05:34;;;;;;;29.52;19.10;;;;;;;18.17;42.73;100075.84;5031037;28;20078;-43
2022/11/15 11:08:16;;;;;;;26.00;18.25;;;;;;;18.29;42.07;100073.06;5030201;28;20033;-46
2022/11/15 11:10:56;;;;;;;26.40;18.60;;;;;;;18.03;43.05;100067.28;5031369;28;20029;-43
2022/11/15 11:13:24;;;;;;;26.20;17.50;;;;;;;18.71;42.08;100059.09;5030884;28;20025;-46
2022/11/15 11:16:21;;;;;;;28.38;18.38;;;;;;;19.43;40.63;100055.38;5030903;28;20025;-44
2022/11/15 11:19:19;;;;;;;26.20;17.60;;;;;;;19.80;40.73;100052.00;5013233;28;20124;-44
2022/11/15 11:21:57;;;;;;;27.50;18.83;;;;;;;20.14;39.45;100045.50;5030769;28;20503;-44
2022/11/15 11:24:40;;;;;;;24.75;17.52;;;;;;;20.46;38.00;100040.81;5030681;28;20158;-44
2022/11/15 11:27:11;;;;;;;25.02;17.77;;;;;;;19.56;39.77;100034.47;5030621;28;20036;-43
2022/11/15 11:29:52;;;;;;;22.85;16.48;;;;;;;19.68;39.96;100029.69;5030569;28;20075;-44
2022/11/15 11:32:20;;;;;;;23.45;16.80;;;;;;;20.33;39.02;100019.66;5030523;28;20025;-44
2022/11/15 11:34:54;;;;;;;25.40;16.58;;;;;;;20.16;39.19;100014.44;5030318;28;20033;-43
2022/11/15 11:37:29;;;;;;;26.05;17.05;;;;;;;20.40;38.32;100011.34;5030088;28;20029;-44
2022/11/15 11:39:54;;;;;;;23.27;18.23;;;;;;;19.63;39.15;100010.75;5030704;28;20033;-43